sensor_id;sensor_type;location;lat;lon;timestamp;P1;durP1;ratioP1;P2;durP2;ratioP2
39778;SDS011;25454;49.878;8.618;2022-11-04T00:02:12;9.60;;;6.63;;
39778;SDS011;25454;49.878;8.618;2022-11-04T00:07:13;7.70;;;6.07;;
39778;SDS011;25454;49.878;8.618;2022-11-04T00:12:32;7.87;;;5.70;;
39778;SDS011;25454;49.878;8.618;2022-11-04T00:17:32;8.17;;;5.83;;
39778;SDS011;25454;49.878;8.618;2022-11-04T00:22:33;8.60;;;6.10;;
39778;SDS011;25454;49.878;8.618;2022-11-04T00:28:08;10.97;;;6.17;;
39778;SDS011;25454;49.878;8.618;2022-11-04T00:33:29;6.33;;;5.00;;
39778;SDS011;25454;49.878;8.618;2022-11-04T00:38:30;5.77;;;4.93;;
39778;SDS011;25454;49.878;8.618;2022-11-04T00:43:30;4.23;;;3.43;;
39778;SDS011;25454;49.878;8.618;2022-11-04T00:48:31;4.50;;;3.33;;
39778;SDS011;25454;49.878;8.618;2022-11-04T00:53:31;3.77;;;2.97;;
39778;SDS011;25454;49.878;8.618;2022-11-04T00:58:32;2.67;;;2.03;;
39778;SDS011;25454;49.878;8.618;2022-11-04T01:03:32;2.23;;;1.97;;
39778;SDS011;25454;49.878;8.618;2022-11-04T01:08:33;2.67;;;1.90;;
39778;SDS011;25454;49.878;8.618;2022-11-04T01:13:34;2.23;;;1.80;;
39778;SDS011;25454;49.878;8.618;2022-11-04T01:18:35;3.47;;;1.50;;
39778;SDS011;25454;49.878;8.618;2022-11-04T01:23:36;1.10;;;1.00;;
39778;SDS011;25454;49.878;8.618;2022-11-04T01:28:37;2.23;;;1.10;;
39778;SDS011;25454;49.878;8.618;2022-11-04T01:33:38;0.93;;;0.83;;
39778;SDS011;25454;49.878;8.618;2022-11-04T01:38:40;1.30;;;1.00;;
39778;SDS011;25454;49.878;8.618;2022-11-04T01:43:42;2.77;;;0.90;;
39778;SDS011;25454;49.878;8.618;2022-11-04T01:48:55;0.90;;;0.70;;
39778;SDS011;25454;49.878;8.618;2022-11-04T01:54:03;0.87;;;0.80;;
39778;SDS011;25454;49.878;8.618;2022-11-04T01:59:06;0.70;;;0.70;;
39778;SDS011;25454;49.878;8.618;2022-11-04T02:04:11;0.90;;;0.90;;
39778;SDS011;25454;49.878;8.618;2022-11-04T02:09:26;0.63;;;0.63;;
39778;SDS011;25454;49.878;8.618;2022-11-04T02:14:29;0.60;;;0.60;;
39778;SDS011;25454;49.878;8.618;2022-11-04T02:30:00;0.73;;;0.73;;
39778;SDS011;25454;49.878;8.618;2022-11-04T02:35:22;0.90;;;0.90;;
39778;SDS011;25454;49.878;8.618;2022-11-04T02:46:25;0.80;;;0.80;;
39778;SDS011;25454;49.878;8.618;2022-11-04T02:57:15;3.87;;;1.10;;
39778;SDS011;25454;49.878;8.618;2022-11-04T03:07:49;1.07;;;0.80;;
39778;SDS011;25454;49.878;8.618;2022-11-04T03:13:04;1.60;;;0.80;;
39778;SDS011;25454;49.878;8.618;2022-11-04T03:23:22;2.67;;;0.93;;
39778;SDS011;25454;49.878;8.618;2022-11-04T03:28:26;2.20;;;1.27;;
39778;SDS011;25454;49.878;8.618;2022-11-04T03:33:50;1.60;;;0.60;;
39778;SDS011;25454;49.878;8.618;2022-11-04T03:38:52;5.43;;;1.10;;
39778;SDS011;25454;49.878;8.618;2022-11-04T03:43:53;3.20;;;1.27;;
39778;SDS011;25454;49.878;8.618;2022-11-04T03:48:53;1.07;;;0.77;;
39778;SDS011;25454;49.878;8.618;2022-11-04T03:53:54;3.50;;;1.13;;
39778;SDS011;25454;49.878;8.618;2022-11-04T04:04:28;2.03;;;1.20;;
39778;SDS011;25454;49.878;8.618;2022-11-04T04:09:36;2.03;;;1.20;;
39778;SDS011;25454;49.878;8.618;2022-11-04T04:20:21;2.20;;;1.43;;
39778;SDS011;25454;49.878;8.618;2022-11-04T04:25:25;5.40;;;1.80;;
39778;SDS011;25454;49.878;8.618;2022-11-04T04:30:50;7.80;;;1.83;;
39778;SDS011;25454;49.878;8.618;2022-11-04T04:35:52;2.53;;;1.40;;
39778;SDS011;25454;49.878;8.618;2022-11-04T04:40:56;8.23;;;1.70;;
39778;SDS011;25454;49.878;8.618;2022-11-04T04:46:21;5.40;;;1.90;;
39778;SDS011;25454;49.878;8.618;2022-11-04T04:51:22;5.57;;;2.00;;
39778;SDS011;25454;49.878;8.618;2022-11-04T04:56:24;6.27;;;1.90;;
39778;SDS011;25454;49.878;8.618;2022-11-04T05:01:24;5.00;;;1.97;;
39778;SDS011;25454;49.878;8.618;2022-11-04T05:06:25;6.73;;;2.10;;
39778;SDS011;25454;49.878;8.618;2022-11-04T05:11:26;5.17;;;1.53;;
39778;SDS011;25454;49.878;8.618;2022-11-04T05:16:26;10.17;;;2.30;;
39778;SDS011;25454;49.878;8.618;2022-11-04T05:21:30;7.70;;;1.90;;
39778;SDS011;25454;49.878;8.618;2022-11-04T05:26:31;7.73;;;1.90;;
39778;SDS011;25454;49.878;8.618;2022-11-04T05:31:32;5.57;;;1.60;;
39778;SDS011;25454;49.878;8.618;2022-11-04T05:36:32;6.40;;;1.60;;
39778;SDS011;25454;49.878;8.618;2022-11-04T05:41:33;6.20;;;1.43;;
39778;SDS011;25454;49.878;8.618;2022-11-04T05:46:33;5.63;;;1.80;;
39778;SDS011;25454;49.878;8.618;2022-11-04T05:51:34;6.77;;;1.90;;
39778;SDS011;25454;49.878;8.618;2022-11-04T05:56:35;6.63;;;1.67;;
39778;SDS011;25454;49.878;8.618;2022-11-04T06:01:36;7.47;;;1.90;;
39778;SDS011;25454;49.878;8.618;2022-11-04T06:06:38;6.20;;;1.77;;
39778;SDS011;25454;49.878;8.618;2022-11-04T06:11:38;4.73;;;1.63;;
39778;SDS011;25454;49.878;8.618;2022-11-04T06:16:39;9.07;;;1.67;;
39778;SDS011;25454;49.878;8.618;2022-11-04T06:21:40;5.87;;;1.77;;
39778;SDS011;25454;49.878;8.618;2022-11-04T06:26:40;7.60;;;1.70;;
39778;SDS011;25454;49.878;8.618;2022-11-04T06:31:41;4.50;;;1.53;;
39778;SDS011;25454;49.878;8.618;2022-11-04T06:36:41;6.17;;;1.50;;
39778;SDS011;25454;49.878;8.618;2022-11-04T06:41:42;5.20;;;1.60;;
39778;SDS011;25454;49.878;8.618;2022-11-04T06:46:45;4.67;;;1.90;;
39778;SDS011;25454;49.878;8.618;2022-11-04T06:51:46;3.67;;;1.70;;
39778;SDS011;25454;49.878;8.618;2022-11-04T06:56:47;5.70;;;1.80;;
39778;SDS011;25454;49.878;8.618;2022-11-04T07:01:48;6.60;;;2.10;;
39778;SDS011;25454;49.878;8.618;2022-11-04T07:06:49;3.83;;;1.80;;
39778;SDS011;25454;49.878;8.618;2022-11-04T07:11:50;3.63;;;1.57;;
39778;SDS011;25454;49.878;8.618;2022-11-04T07:16:50;6.67;;;1.63;;
39778;SDS011;25454;49.878;8.618;2022-11-04T07:21:51;6.83;;;1.60;;
39778;SDS011;25454;49.878;8.618;2022-11-04T07:26:53;7.07;;;1.33;;
39778;SDS011;25454;49.878;8.618;2022-11-04T07:31:54;10.40;;;1.87;;
39778;SDS011;25454;49.878;8.618;2022-11-04T07:36:54;5.17;;;1.80;;
39778;SDS011;25454;49.878;8.618;2022-11-04T07:41:55;2.83;;;1.03;;
39778;SDS011;25454;49.878;8.618;2022-11-04T07:46:56;5.93;;;1.57;;
39778;SDS011;25454;49.878;8.618;2022-11-04T07:51:56;4.53;;;1.40;;
39778;SDS011;25454;49.878;8.618;2022-11-04T07:56:57;8.57;;;1.70;;
39778;SDS011;25454;49.878;8.618;2022-11-04T08:01:57;4.60;;;1.60;;
39778;SDS011;25454;49.878;8.618;2022-11-04T08:06:58;6.73;;;1.50;;
39778;SDS011;25454;49.878;8.618;2022-11-04T08:11:58;10.67;;;2.03;;
39778;SDS011;25454;49.878;8.618;2022-11-04T08:16:59;4.53;;;1.30;;
39778;SDS011;25454;49.878;8.618;2022-11-04T08:21:59;2.70;;;1.20;;
39778;SDS011;25454;49.878;8.618;2022-11-04T08:27:00;4.70;;;1.60;;
39778;SDS011;25454;49.878;8.618;2022-11-04T08:32:01;4.10;;;1.20;;
39778;SDS011;25454;49.878;8.618;2022-11-04T08:37:02;3.87;;;1.63;;
39778;SDS011;25454;49.878;8.618;2022-11-04T08:42:02;6.13;;;1.80;;
39778;SDS011;25454;49.878;8.618;2022-11-04T08:47:03;4.53;;;1.70;;
39778;SDS011;25454;49.878;8.618;2022-11-04T08:52:04;4.10;;;1.40;;
39778;SDS011;25454;49.878;8.618;2022-11-04T08:57:05;2.93;;;1.30;;
39778;SDS011;25454;49.878;8.618;2022-11-04T09:02:09;3.27;;;1.50;;
39778;SDS011;25454;49.878;8.618;2022-11-04T09:07:12;4.67;;;1.30;;
39778;SDS011;25454;49.878;8.618;2022-11-04T09:12:13;5.23;;;1.77;;
39778;SDS011;25454;49.878;8.618;2022-11-04T09:17:13;3.50;;;1.50;;
39778;SDS011;25454;49.878;8.618;2022-11-04T09:22:14;6.10;;;1.80;;
39778;SDS011;25454;49.878;8.618;2022-11-04T09:27:15;6.43;;;1.60;;
39778;SDS011;25454;49.878;8.618;2022-11-04T09:32:15;5.00;;;1.40;;
39778;SDS011;25454;49.878;8.618;2022-11-04T09:37:16;2.90;;;1.70;;
39778;SDS011;25454;49.878;8.618;2022-11-04T09:47:32;3.90;;;1.47;;
39778;SDS011;25454;49.878;8.618;2022-11-04T09:52:38;5.60;;;1.90;;
39778;SDS011;25454;49.878;8.618;2022-11-04T09:57:53;3.33;;;1.47;;
39778;SDS011;25454;49.878;8.618;2022-11-04T10:03:04;4.93;;;1.70;;
39778;SDS011;25454;49.878;8.618;2022-11-04T10:08:21;7.07;;;1.50;;
39778;SDS011;25454;49.878;8.618;2022-11-04T10:13:54;4.80;;;1.40;;
39778;SDS011;25454;49.878;8.618;2022-11-04T10:24:30;2.70;;;1.23;;
39778;SDS011;25454;49.878;8.618;2022-11-04T10:29:43;3.83;;;1.47;;
39778;SDS011;25454;49.878;8.618;2022-11-04T10:34:48;4.57;;;1.67;;
39778;SDS011;25454;49.878;8.618;2022-11-04T10:40:01;5.23;;;1.60;;
39778;SDS011;25454;49.878;8.618;2022-11-04T10:45:14;5.60;;;1.80;;
39778;SDS011;25454;49.878;8.618;2022-11-04T10:50:17;6.37;;;1.47;;
39778;SDS011;25454;49.878;8.618;2022-11-04T11:01:21;5.00;;;1.70;;
39778;SDS011;25454;49.878;8.618;2022-11-04T11:11:41;5.70;;;1.50;;
39778;SDS011;25454;49.878;8.618;2022-11-04T11:16:46;6.70;;;1.50;;
39778;SDS011;25454;49.878;8.618;2022-11-04T11:21:53;3.90;;;1.40;;
39778;SDS011;25454;49.878;8.618;2022-11-04T11:26:56;3.03;;;1.43;;
39778;SDS011;25454;49.878;8.618;2022-11-04T11:31:59;6.93;;;1.70;;
39778;SDS011;25454;49.878;8.618;2022-11-04T11:37:02;5.20;;;1.50;;
39778;SDS011;25454;49.878;8.618;2022-11-04T11:42:10;7.70;;;1.67;;
39778;SDS011;25454;49.878;8.618;2022-11-04T11:47:18;4.27;;;1.57;;
39778;SDS011;25454;49.878;8.618;2022-11-04T11:52:34;6.20;;;1.97;;
39778;SDS011;25454;49.878;8.618;2022-11-04T12:03:29;6.57;;;1.70;;
39778;SDS011;25454;49.878;8.618;2022-11-04T12:14:07;6.87;;;1.90;;
39778;SDS011;25454;49.878;8.618;2022-11-04T12:19:29;4.30;;;1.63;;
39778;SDS011;25454;49.878;8.618;2022-11-04T12:24:50;4.83;;;1.60;;
39778;SDS011;25454;49.878;8.618;2022-11-04T12:35:18;5.50;;;1.83;;
39778;SDS011;25454;49.878;8.618;2022-11-04T12:40:26;2.27;;;1.17;;
39778;SDS011;25454;49.878;8.618;2022-11-04T12:51:08;6.67;;;1.70;;
39778;SDS011;25454;49.878;8.618;2022-11-04T12:56:22;5.13;;;1.77;;
39778;SDS011;25454;49.878;8.618;2022-11-04T13:01:37;8.47;;;1.80;;
39778;SDS011;25454;49.878;8.618;2022-11-04T13:06:47;3.43;;;1.30;;
39778;SDS011;25454;49.878;8.618;2022-11-04T13:11:54;4.27;;;1.10;;
39778;SDS011;25454;49.878;8.618;2022-11-04T13:17:04;3.77;;;1.50;;
39778;SDS011;25454;49.878;8.618;2022-11-04T13:22:14;4.07;;;1.40;;
39778;SDS011;25454;49.878;8.618;2022-11-04T13:27:24;7.77;;;1.90;;
39778;SDS011;25454;49.878;8.618;2022-11-04T13:38:22;3.97;;;1.23;;
39778;SDS011;25454;49.878;8.618;2022-11-04T13:43:33;6.37;;;1.90;;
39778;SDS011;25454;49.878;8.618;2022-11-04T13:48:46;3.33;;;1.57;;
39778;SDS011;25454;49.878;8.618;2022-11-04T13:53:55;8.83;;;1.97;;
39778;SDS011;25454;49.878;8.618;2022-11-04T13:59:04;6.20;;;1.90;;
39778;SDS011;25454;49.878;8.618;2022-11-04T14:04:28;4.67;;;1.70;;
39778;SDS011;25454;49.878;8.618;2022-11-04T14:14:49;4.37;;;1.80;;
39778;SDS011;25454;49.878;8.618;2022-11-04T14:24:58;5.37;;;1.90;;
39778;SDS011;25454;49.878;8.618;2022-11-04T14:30:04;6.47;;;1.80;;
39778;SDS011;25454;49.878;8.618;2022-11-04T14:35:14;3.37;;;1.50;;
39778;SDS011;25454;49.878;8.618;2022-11-04T14:40:27;6.17;;;2.20;;
39778;SDS011;25454;49.878;8.618;2022-11-04T14:45:45;3.90;;;1.70;;
39778;SDS011;25454;49.878;8.618;2022-11-04T14:50:48;5.13;;;2.20;;
39778;SDS011;25454;49.878;8.618;2022-11-04T14:56:01;4.20;;;1.50;;
39778;SDS011;25454;49.878;8.618;2022-11-04T15:01:14;8.43;;;2.20;;
39778;SDS011;25454;49.878;8.618;2022-11-04T15:06:22;7.17;;;1.73;;
39778;SDS011;25454;49.878;8.618;2022-11-04T15:11:28;4.03;;;2.10;;
39778;SDS011;25454;49.878;8.618;2022-11-04T15:16:48;5.03;;;1.60;;
39778;SDS011;25454;49.878;8.618;2022-11-04T15:21:53;3.87;;;1.33;;
39778;SDS011;25454;49.878;8.618;2022-11-04T15:26:56;3.37;;;1.50;;
39778;SDS011;25454;49.878;8.618;2022-11-04T15:32:01;5.70;;;1.80;;
39778;SDS011;25454;49.878;8.618;2022-11-04T15:37:03;7.97;;;1.70;;
39778;SDS011;25454;49.878;8.618;2022-11-04T15:42:12;3.33;;;1.30;;
39778;SDS011;25454;49.878;8.618;2022-11-04T15:47:35;5.77;;;1.43;;
39778;SDS011;25454;49.878;8.618;2022-11-04T15:52:36;3.50;;;1.73;;
39778;SDS011;25454;49.878;8.618;2022-11-04T15:57:37;6.73;;;1.93;;
39778;SDS011;25454;49.878;8.618;2022-11-04T16:02:43;4.27;;;2.10;;
39778;SDS011;25454;49.878;8.618;2022-11-04T16:07:50;6.07;;;2.70;;
39778;SDS011;25454;49.878;8.618;2022-11-04T16:12:59;11.10;;;2.77;;
39778;SDS011;25454;49.878;8.618;2022-11-04T16:18:02;5.90;;;2.60;;
39778;SDS011;25454;49.878;8.618;2022-11-04T16:23:04;3.20;;;1.70;;
39778;SDS011;25454;49.878;8.618;2022-11-04T16:28:04;5.63;;;2.43;;
39778;SDS011;25454;49.878;8.618;2022-11-04T16:33:07;4.30;;;2.10;;
39778;SDS011;25454;49.878;8.618;2022-11-04T16:38:09;6.27;;;2.47;;
39778;SDS011;25454;49.878;8.618;2022-11-04T16:43:10;8.67;;;4.47;;
39778;SDS011;25454;49.878;8.618;2022-11-04T16:48:18;18.13;;;9.70;;
39778;SDS011;25454;49.878;8.618;2022-11-04T16:53:19;26.77;;;13.17;;
39778;SDS011;25454;49.878;8.618;2022-11-04T16:58:20;12.30;;;6.73;;
39778;SDS011;25454;49.878;8.618;2022-11-04T17:03:21;7.00;;;3.73;;
39778;SDS011;25454;49.878;8.618;2022-11-04T17:08:22;9.93;;;3.47;;
39778;SDS011;25454;49.878;8.618;2022-11-04T17:13:24;6.00;;;3.17;;
39778;SDS011;25454;49.878;8.618;2022-11-04T17:18:25;4.57;;;2.50;;
39778;SDS011;25454;49.878;8.618;2022-11-04T17:23:28;6.70;;;2.53;;
39778;SDS011;25454;49.878;8.618;2022-11-04T17:28:29;8.13;;;2.60;;
39778;SDS011;25454;49.878;8.618;2022-11-04T17:33:32;5.10;;;3.13;;
39778;SDS011;25454;49.878;8.618;2022-11-04T17:38:32;8.23;;;3.80;;
39778;SDS011;25454;49.878;8.618;2022-11-04T17:43:33;12.10;;;6.10;;
39778;SDS011;25454;49.878;8.618;2022-11-04T17:48:52;11.90;;;7.03;;
39778;SDS011;25454;49.878;8.618;2022-11-04T17:53:53;6.67;;;4.63;;
39778;SDS011;25454;49.878;8.618;2022-11-04T17:58:53;9.00;;;5.00;;
39778;SDS011;25454;49.878;8.618;2022-11-04T18:03:54;8.90;;;4.80;;
39778;SDS011;25454;49.878;8.618;2022-11-04T18:08:55;8.13;;;4.77;;
39778;SDS011;25454;49.878;8.618;2022-11-04T18:13:56;7.20;;;4.53;;
39778;SDS011;25454;49.878;8.618;2022-11-04T18:18:57;4.50;;;3.50;;
39778;SDS011;25454;49.878;8.618;2022-11-04T18:23:58;7.40;;;4.30;;
39778;SDS011;25454;49.878;8.618;2022-11-04T18:28:59;8.40;;;5.27;;
39778;SDS011;25454;49.878;8.618;2022-11-04T18:34:01;6.47;;;4.07;;
39778;SDS011;25454;49.878;8.618;2022-11-04T18:39:07;8.17;;;5.40;;
39778;SDS011;25454;49.878;8.618;2022-11-04T18:44:16;16.87;;;11.27;;
39778;SDS011;25454;49.878;8.618;2022-11-04T18:49:19;10.17;;;6.97;;
39778;SDS011;25454;49.878;8.618;2022-11-04T18:54:19;8.87;;;5.50;;
39778;SDS011;25454;49.878;8.618;2022-11-04T18:59:20;8.37;;;4.43;;
39778;SDS011;25454;49.878;8.618;2022-11-04T19:04:22;8.40;;;4.87;;
39778;SDS011;25454;49.878;8.618;2022-11-04T19:09:22;9.40;;;5.40;;
39778;SDS011;25454;49.878;8.618;2022-11-04T19:14:23;11.00;;;6.27;;
39778;SDS011;25454;49.878;8.618;2022-11-04T19:19:24;7.93;;;4.60;;
39778;SDS011;25454;49.878;8.618;2022-11-04T19:24:25;6.80;;;4.13;;
39778;SDS011;25454;49.878;8.618;2022-11-04T19:29:27;6.53;;;3.80;;
39778;SDS011;25454;49.878;8.618;2022-11-04T19:34:28;10.43;;;6.17;;
39778;SDS011;25454;49.878;8.618;2022-11-04T19:39:28;8.93;;;4.20;;
39778;SDS011;25454;49.878;8.618;2022-11-04T19:44:30;9.00;;;5.00;;
39778;SDS011;25454;49.878;8.618;2022-11-04T19:49:31;8.87;;;4.23;;
39778;SDS011;25454;49.878;8.618;2022-11-04T19:54:31;6.57;;;4.20;;
39778;SDS011;25454;49.878;8.618;2022-11-04T19:59:32;9.93;;;4.33;;
39778;SDS011;25454;49.878;8.618;2022-11-04T20:04:32;7.23;;;4.10;;
39778;SDS011;25454;49.878;8.618;2022-11-04T20:09:36;4.93;;;3.80;;
39778;SDS011;25454;49.878;8.618;2022-11-04T20:14:37;9.00;;;4.33;;
39778;SDS011;25454;49.878;8.618;2022-11-04T20:19:37;10.30;;;5.17;;
39778;SDS011;25454;49.878;8.618;2022-11-04T20:24:38;6.73;;;4.87;;
39778;SDS011;25454;49.878;8.618;2022-11-04T20:29:38;8.43;;;5.30;;
39778;SDS011;25454;49.878;8.618;2022-11-04T20:34:42;7.73;;;5.10;;
39778;SDS011;25454;49.878;8.618;2022-11-04T20:39:42;8.10;;;5.00;;
39778;SDS011;25454;49.878;8.618;2022-11-04T20:44:43;7.23;;;4.97;;
39778;SDS011;25454;49.878;8.618;2022-11-04T20:49:46;7.63;;;5.10;;
39778;SDS011;25454;49.878;8.618;2022-11-04T20:54:48;9.37;;;5.70;;
39778;SDS011;25454;49.878;8.618;2022-11-04T20:59:48;9.20;;;6.20;;
39778;SDS011;25454;49.878;8.618;2022-11-04T21:04:49;8.20;;;5.33;;
39778;SDS011;25454;49.878;8.618;2022-11-04T21:09:50;9.63;;;5.70;;
39778;SDS011;25454;49.878;8.618;2022-11-04T21:14:51;10.03;;;6.37;;
39778;SDS011;25454;49.878;8.618;2022-11-04T21:19:51;11.07;;;6.30;;
39778;SDS011;25454;49.878;8.618;2022-11-04T21:24:53;9.00;;;5.90;;
39778;SDS011;25454;49.878;8.618;2022-11-04T21:29:53;7.60;;;5.83;;
39778;SDS011;25454;49.878;8.618;2022-11-04T21:34:54;11.83;;;6.20;;
39778;SDS011;25454;49.878;8.618;2022-11-04T21:39:57;8.10;;;5.93;;
39778;SDS011;25454;49.878;8.618;2022-11-04T21:44:58;8.30;;;6.03;;
39778;SDS011;25454;49.878;8.618;2022-11-04T21:50:01;10.47;;;6.47;;
39778;SDS011;25454;49.878;8.618;2022-11-04T21:55:03;10.40;;;6.40;;
39778;SDS011;25454;49.878;8.618;2022-11-04T22:00:07;10.20;;;7.20;;
39778;SDS011;25454;49.878;8.618;2022-11-04T22:05:10;7.93;;;6.20;;
39778;SDS011;25454;49.878;8.618;2022-11-04T22:10:10;7.93;;;6.03;;
39778;SDS011;25454;49.878;8.618;2022-11-04T22:15:11;9.70;;;6.87;;
39778;SDS011;25454;49.878;8.618;2022-11-04T22:20:14;7.77;;;5.73;;
39778;SDS011;25454;49.878;8.618;2022-11-04T22:25:15;7.80;;;6.07;;
39778;SDS011;25454;49.878;8.618;2022-11-04T22:30:15;7.80;;;7.00;;
39778;SDS011;25454;49.878;8.618;2022-11-04T22:35:16;7.30;;;6.07;;
39778;SDS011;25454;49.878;8.618;2022-11-04T22:40:16;6.73;;;5.63;;
39778;SDS011;25454;49.878;8.618;2022-11-04T22:45:17;8.23;;;5.70;;
39778;SDS011;25454;49.878;8.618;2022-11-04T22:50:17;10.43;;;5.53;;
39778;SDS011;25454;49.878;8.618;2022-11-04T22:55:18;6.83;;;5.83;;
39778;SDS011;25454;49.878;8.618;2022-11-04T23:00:19;8.17;;;5.70;;
39778;SDS011;25454;49.878;8.618;2022-11-04T23:05:19;9.30;;;5.70;;
39778;SDS011;25454;49.878;8.618;2022-11-04T23:10:20;7.93;;;5.30;;
39778;SDS011;25454;49.878;8.618;2022-11-04T23:15:42;7.37;;;5.57;;
39778;SDS011;25454;49.878;8.618;2022-11-04T23:21:01;8.77;;;5.53;;
39778;SDS011;25454;49.878;8.618;2022-11-04T23:26:34;11.50;;;5.53;;
39778;SDS011;25454;49.878;8.618;2022-11-04T23:31:35;7.73;;;6.27;;
39778;SDS011;25454;49.878;8.618;2022-11-04T23:36:35;8.53;;;7.03;;
39778;SDS011;25454;49.878;8.618;2022-11-04T23:41:55;8.90;;;6.37;;
39778;SDS011;25454;49.878;8.618;2022-11-04T23:47:14;7.40;;;6.53;;
39778;SDS011;25454;49.878;8.618;2022-11-04T23:52:33;6.73;;;6.03;;
39778;SDS011;25454;49.878;8.618;2022-11-04T23:57:52;7.43;;;6.00;;
